Data for 10/20/2010

Time Sea-Level Adjusted Pressure Absolute Pressure Temperature Relative Humidity Dew Point   
(mb) (inHg) (mb) (inHg) (C) (F) (%) (C) (F)
00:05 1022 30.18 851 25.13 5.8 42.5 60 -1.4 29.4
00:10 1022 30.18 851 25.13 6 42.8 58 -1.6 29.1
00:15 1022 30.18 851 25.13 6.4 43.4 57 -1.6 29.2
00:20 1022 30.18 851 25.13 6.4 43.5 58 -1.4 29.5
00:25 1022 30.18 851 25.13 6.1 43 59 -1.2 29.8
00:30 1022 30.18 851 25.13 5.8 42.4 60 -1.4 29.4
00:35 1022 30.18 851 25.13 5.8 42.5 59 -1.4 29.4
00:40 1022 30.18 851 25.13 5.9 42.6 58 -1.6 29.1
00:45 1022 30.18 851 25.13 6 42.8 58 -1.6 29.1
00:50 1022 30.18 851 25.13 6 42.9 58 -1.5 29.2
00:55 1022 30.18 851 25.13 5.9 42.7 58 -1.6 29.1
01:00 1022 30.18 851 25.13 6 42.8 58 -1.6 29.1
01:05 1022 30.18 851 25.13 5.9 42.6 59 -1.5 29.4
01:10 1022 30.18 851 25.13 5.7 42.3 60 -1.5 29.3
01:15 1022 30.18 851 25.13 5.6 42 60 -1.5 29.3
01:20 1022 30.18 851 25.13 5.4 41.7 61 -1.5 29.3
01:25 1022 30.18 851 25.13 5.3 41.5 61 -1.6 29.1
01:30 1022 30.18 851 25.13 5.4 41.8 60 -1.6 29.1
01:35 1022 30.18 851 25.13 5.4 41.7 60 -1.6 29.1
01:40 1022 30.18 851 25.13 5.4 41.7 60 -1.7 29
01:45 1022 30.18 851 25.13 5.4 41.7 60 -1.6 29.1
01:50 1022 30.18 851 25.13 5.3 41.5 61 -1.6 29.1
01:55 1022 30.18 851 25.13 5.2 41.4 61 -1.7 29
02:00 1022 30.18 851 25.13 5.2 41.4 61 -1.7 29
02:05 1022 30.18 851 25.13 5.2 41.4 61 -1.7 28.9
02:10 1022 30.18 851 25.13 5.2 41.4 61 -1.7 29
02:15 1022 30.18 851 25.13 5.2 41.3 61 -1.7 28.9
02:20 1022 30.18 851 25.13 5 41.1 62 -1.5 29.2
02:25 1022 30.18 851 25.13 5 41 61 -1.9 28.5
02:30 1022 30.18 851 25.13 5.4 41.8 58 -2.1 28.3
02:35 1022 30.18 851 25.13 5.7 42.3 58 -1.9 28.6
02:40 1022 30.18 851 25.13 5.8 42.4 57 -2.1 28.3
02:45 1022 30.18 851 25.13 5.8 42.5 57 -2.1 28.2
02:50 1022 30.18 851 25.13 5.9 42.6 57 -1.9 28.6
02:55 1022 30.18 851 25.13 5.9 42.6 57 -1.9 28.5
03:00 1022 30.18 851 25.13 5.9 42.6 56 -2.1 28.2
03:05 1022 30.18 851 25.13 6 42.9 57 -1.7 28.9
03:10 1022 30.18 851 25.13 5.7 42.2 58 -1.9 28.6
03:15 1022 30.18 851 25.13 5.5 41.8 60 -1.7 28.9
03:20 1022 30.18 851 25.13 5.2 41.3 60 -1.9 28.6
03:25 1022 30.18 851 25.13 5.1 41.1 61 -1.7 28.9
03:30 1022 30.18 851 25.13 4.7 40.4 63 -1.8 28.8
03:35 1022 30.18 851 25.13 4.5 40.1 64 -1.7 29
03:40 1022 30.18 851 25.13 4 39.3 67 -1.6 29.1
03:45 1022 30.18 851 25.13 3.8 38.8 66 -2 28.5
03:50 1022 30.18 851 25.13 4.2 39.6 64 -1.9 28.5
03:55 1022 30.18 851 25.13 4.3 39.8 65 -1.7 28.9
04:00 1022 30.18 851 25.13 4 39.3 66 -1.7 28.9
04:05 1022 30.18 851 25.13 4 39.3 65 -1.9 28.6
04:10 1022 30.18 851 25.13 4.1 39.4 65 -1.8 28.7
04:15 1022 30.18 851 25.13 4.1 39.4 65 -1.9 28.5
04:20 1022 30.18 851 25.13 4.1 39.4 66 -1.8 28.8
04:25 1022 30.18 851 25.13 3.7 38.7 68 -1.6 29.1
04:30 1022 30.18 851 25.13 3.3 37.9 69 -1.9 28.7
04:35 1022 30.18 851 25.13 3.4 38.2 68 -1.9 28.5
04:40 1022 30.18 851 25.13 3.6 38.5 67 -1.9 28.6
04:45 1022 30.18 851 25.13 3.6 38.5 67 -1.9 28.6
04:50 1022 30.18 851 25.13 3.6 38.5 67 -1.9 28.6
04:55 1022 30.18 851 25.13 3.6 38.5 67 -2 28.4
05:00 1022 30.18 851 25.13 3.9 38.9 66 -2 28.5
05:05 1022 30.18 851 25.13 3.8 38.9 66 -1.9 28.6
05:10 1021 30.15 851 25.13 3.8 38.8 66 -2 28.4
05:15 1022 30.18 851 25.13 3.8 38.9 66 -1.9 28.6
05:20 1021 30.15 851 25.13 3.7 38.6 68 -1.7 28.9
05:25 1021 30.15 851 25.13 3.4 38.1 68 -2 28.5
05:30 1021 30.15 851 25.13 3.6 38.4 66 -2.1 28.2
05:35 1021 30.15 851 25.13 3.9 39 65 -2.1 28.3
05:40 1022 30.18 851 25.13 3.8 38.8 66 -1.9 28.6
05:45 1022 30.18 851 25.13 3.5 38.2 68 -1.9 28.6
05:50 1022 30.18 851 25.13 3.4 38.1 67 -2.1 28.2
05:55 1022 30.18 851 25.13 3.7 38.6 65 -2.2 28.1
06:00 1022 30.18 851 25.13 3.8 38.9 65 -2.2 28
06:05 1022 30.18 851 25.13 3.7 38.7 66 -2 28.5
06:10 1022 30.18 851 25.13 3.5 38.3 67 -2 28.4
06:15 1022 30.18 851 25.13 3.5 38.3 66 -2.2 28.1
06:20 1022 30.18 851 25.13 3.7 38.6 66 -2 28.4
06:25 1022 30.18 851 25.13 3.5 38.4 67 -2 28.4
06:30 1022 30.18 851 25.13 3.2 37.8 69 -2 28.4
06:35 1022 30.18 851 25.13 2.9 37.2 69 -2.2 28.1
06:40 1022 30.18 851 25.13 3.2 37.7 68 -2.2 28
06:45 1022 30.18 851 25.13 3.2 37.7 68 -2.2 28
06:50 1022 30.18 851 25.13 3.4 38.2 67 -2 28.3
06:55 1022 30.18 851 25.13 3.3 38 67 -2.2 28.1
07:00 1022 30.18 851 25.13 3.6 38.4 67 -2 28.3
07:05 1022 30.18 851 25.13 3.5 38.3 66 -2.1 28.2
07:10 1022 30.18 851 25.13 4.1 39.4 64 -2 28.4
07:15 1022 30.18 851 25.13 3.7 38.6 67 -1.9 28.5
07:20 1022 30.18 851 25.13 4 39.1 63 -2.4 27.7
07:25 1022 30.18 851 25.13 4 39.3 66 -1.8 28.8
07:30 1022 30.18 851 25.13 3.4 38.1 68 -1.9 28.6
07:35 1022 30.18 851 25.13 3.4 38.1 67 -2.1 28.2
07:40 1022 30.18 851 25.13 3.2 37.8 67 -2.2 28
07:45 1022 30.18 851 25.13 3.2 37.8 67 -2.3 27.8
07:50 1022 30.18 851 25.13 3.4 38.2 66 -2.3 27.9
07:55 1022 30.18 851 25.13 3.5 38.3 68 -1.9 28.5
08:00 1022 30.18 851 25.13 3 37.4 69 -2 28.4
08:05 1022 30.18 851 25.13 2.6 36.8 70 -2.3 27.9
08:10 1022 30.18 851 25.13 2.8 37 68 -2.5 27.6
08:15 1022 30.18 851 25.13 3.2 37.7 67 -2.4 27.7
08:20 1022 30.18 851 25.13 3.5 38.3 64 -2.7 27.1
08:25 1022 30.18 851 25.13 4.5 40 61 -2.4 27.6
08:30 1022 30.18 851 25.13 4.5 40.1 61 -2.3 27.9
08:35 1022 30.18 851 25.13 4.4 39.9 62 -2.3 27.9
08:40 1022 30.18 851 25.13 4.4 40 61 -2.4 27.6
08:45 1022 30.18 851 25.13 4.7 40.5 60 -2.3 27.8
08:50 1022 30.18 851 25.13 5 41 59 -2.3 27.9
08:55 1022 30.18 851 25.13 5.7 42.3 57 -2.2 28.1
09:00 1022 30.18 851 25.13 6.4 43.6 54 -2.1 28.2
09:05 1022 30.18 851 25.13 7 44.6 53 -2 28.4
09:10 1022 30.18 851 25.13 6.9 44.4 54 -1.6 29.1
09:15 1022 30.18 851 25.13 6.4 43.6 55 -1.8 28.7
09:20 1022 30.18 851 25.13 6.2 43.2 56 -1.9 28.6
09:25 1022 30.18 851 25.13 6.8 44.2 55 -1.5 29.2
09:30 1022 30.18 851 25.13 6.9 44.4 55 -1.6 29
09:35 1022 30.18 851 25.13 6.7 44.1 56 -1.5 29.4
09:40 1022 30.18 851 25.13 7 44.6 54 -1.6 29.1
09:45 1022 30.18 851 25.13 6.7 44.1 54 -1.9 28.6
09:50 1022 30.18 851 25.13 7.5 45.5 51 -1.9 28.5
09:55 1022 30.18 852 25.16 8.1 46.5 50 -1.7 29
10:00 1022 30.18 852 25.16 8.4 47.1 49 -1.5 29.2
10:05 1022 30.18 851 25.13 8.6 47.4 47 -1.9 28.5
10:10 1022 30.18 851 25.13 9.1 48.4 48 -1.4 29.5
10:15 1022 30.18 851 25.13 8.8 47.8 49 -1.3 29.6
10:20 1022 30.18 851 25.13 9.4 48.9 46 -1.6 29.2
10:25 1022 30.18 851 25.13 9.4 48.9 47 -1.3 29.7
10:30 1022 30.18 851 25.13 9.6 49.2 45 -1.6 29.1
10:35 1022 30.18 851 25.13 9.9 49.9 46 -1.2 29.8
10:40 1022 30.18 851 25.13 10.1 50.2 43 -1.8 28.8
10:45 1022 30.18 851 25.13 10.2 50.4 43 -1.8 28.7
10:50 1022 30.18 851 25.13 10 50 45 -1.4 29.5
10:55 1022 30.18 851 25.13 9.9 49.9 45 -1.3 29.6
11:00 1022 30.18 851 25.13 10.1 50.1 45 -1.2 29.8
11:05 1022 30.18 851 25.13 10.5 51 43 -1.6 29.2
11:10 1022 30.18 851 25.13 11.5 52.8 40 -1.5 29.4
11:15 1022 30.18 851 25.13 12 53.7 40 -1 30.2
11:20 1022 30.18 851 25.13 11.4 52.6 42 -1 30.3
11:25 1022 30.18 851 25.13 11.8 53.2 40 -1.4 29.5
11:30 1022 30.18 851 25.13 12.6 54.8 37 -1.7 29
11:35 1022 30.18 851 25.13 12.7 54.9 38 -1 30.1
11:40 1022 30.18 851 25.13 12.6 54.7 39 -1.1 30
11:45 1022 30.18 851 25.13 12.4 54.4 39 -1.2 29.8
11:50 1022 30.18 851 25.13 12.5 54.5 38 -1.5 29.3
11:55 1022 30.18 851 25.13 13 55.4 36 -1.6 29.2
12:00 1022 30.18 851 25.13 13.2 55.7 37 -1.2 29.9
12:05 1022 30.18 851 25.13 13.1 55.5 37 -1.3 29.7
12:10 1022 30.18 851 25.13 13.2 55.8 37 -1.1 30
12:15 1022 30.18 851 25.13 13.2 55.8 37 -1 30.1
12:20 1022 30.18 851 25.13 13.2 55.8 37 -1.2 29.8
12:25 1022 30.18 851 25.13 12.9 55.3 37 -1.5 29.3
12:30 1022 30.18 851 25.13 13.1 55.6 38 -0.9 30.4
12:35 1022 30.18 851 25.13 13.5 56.4 37 -0.9 30.4
12:40 1022 30.18 851 25.13 14.3 57.7 34 -1.3 29.7
12:45 1022 30.18 851 25.13 14.8 58.7 35 -0.5 31.2
12:50 1022 30.18 851 25.13 14.9 58.7 33 -1 30.2
12:55 1022 30.18 851 25.13 14.9 58.8 35 -0.4 31.4
13:00 1021 30.15 851 25.13 14.6 58.3 35 -0.4 31.2
13:05 1021 30.15 851 25.13 14.7 58.5 34 -1 30.3
13:10 1021 30.15 851 25.13 15.3 59.5 33 -0.8 30.5
13:15 1021 30.15 851 25.13 15.4 59.8 33 -0.6 30.8
13:20 1021 30.15 850 25.1 15.7 60.2 32 -0.7 30.7
13:25 1021 30.15 850 25.1 15.8 60.5 32 -0.7 30.7
13:30 1021 30.15 850 25.1 15.1 59.2 34 -0.7 30.7
13:35 1021 30.15 850 25.1 15.4 59.6 32 -1.1 30
13:40 1021 30.15 850 25.1 14.8 58.7 34 -0.7 30.8
13:45 1021 30.15 850 25.1 15.1 59.1 34 -0.7 30.7
13:50 1021 30.15 850 25.1 16.2 61.1 31 -0.8 30.6
13:55 1021 30.15 850 25.1 16.4 61.5 32 -0.4 31.3
14:00 1021 30.15 850 25.1 16.4 61.6 31 -0.6 30.8
14:05 1021 30.15 850 25.1 16.5 61.7 31 -0.4 31.3
14:10 1021 30.15 850 25.1 16.1 60.9 31 -0.8 30.6
14:15 1020 30.12 850 25.1 16.2 61.1 31 -0.6 30.8
14:20 1020 30.12 850 25.1 16.6 61.8 31 -0.7 30.8
14:25 1020 30.12 850 25.1 16.6 61.8 32 -0.1 31.9
14:30 1020 30.12 850 25.1 17 62.5 30 -0.6 30.9
14:35 1020 30.12 849 25.07 17 62.6 31 -0.3 31.5
14:40 1020 30.12 849 25.07 16.9 62.4 31 -0.3 31.4
14:45 1020 30.12 849 25.07 17.5 63.6 29 -0.6 30.9
14:50 1020 30.12 849 25.07 17.6 63.6 30 -0.1 31.8
14:55 1020 30.12 849 25.07 17.6 63.7 30 -0.2 31.6
15:00 1020 30.12 849 25.07 18.1 64.5 29 0.1 32.1
15:05 1020 30.12 849 25.07 17.8 64.1 28 -0.7 30.8
15:10 1020 30.12 849 25.07 18.2 64.7 29 -0.1 31.8
15:15 1020 30.12 849 25.07 17.8 64 29 -0.4 31.3
15:20 1020 30.12 849 25.07 17.8 64 29 -0.4 31.3
15:25 1020 30.12 849 25.07 18 64.4 29 0 32.1
15:30 1020 30.12 849 25.07 17.9 64.2 29 -0.3 31.5
15:35 1020 30.12 849 25.07 18.7 65.7 27 -0.5 31.1
15:40 1020 30.12 849 25.07 18.8 65.8 27 -0.5 31
15:45 1020 30.12 849 25.07 19.2 66.5 26 -0.6 30.9
15:50 1019 30.09 849 25.07 18.7 65.7 27 -0.3 31.4
15:55 1019 30.09 849 25.07 18.8 65.9 27 -0.3 31.5
16:00 1019 30.09 849 25.07 18.9 66 27 -0.4 31.4
16:05 1019 30.09 849 25.07 19.1 66.4 28 0.4 32.7
16:10 1019 30.09 849 25.07 19.3 66.7 27 -0.1 31.8
16:15 1019 30.09 849 25.07 19.3 66.8 27 -0.1 31.9
16:20 1019 30.09 848 25.04 19.3 66.7 26 -0.5 31
16:25 1019 30.09 848 25.04 19.4 66.8 26 -0.5 31.1
16:30 1019 30.09 848 25.04 19.3 66.7 26 -0.7 30.8
16:35 1019 30.09 848 25.04 19.2 66.5 26 -0.7 30.8
16:40 1019 30.09 848 25.04 19.2 66.6 25 -1.2 29.8
16:45 1019 30.09 848 25.04 19.1 66.4 26 -0.5 31.2
16:50 1019 30.09 848 25.04 18.8 65.9 26 -1.1 30
16:55 1019 30.09 848 25.04 19.1 66.3 26 -1 30.3
17:00 1019 30.09 848 25.04 18.8 65.9 26 -0.7 30.7
17:05 1019 30.09 848 25.04 18.3 65 27 -0.9 30.4
17:10 1019 30.09 848 25.04 18.4 65.2 26 -1.4 29.5
17:15 1019 30.09 848 25.04 18.4 65 26 -1.4 29.5
17:20 1019 30.09 848 25.04 18 64.3 26 -1.5 29.3
17:25 1019 30.09 848 25.04 17.9 64.3 25 -2.2 28.1
17:30 1019 30.09 848 25.04 18.3 64.9 25 -1.9 28.5
17:35 1019 30.09 848 25.04 18.6 65.5 24 -2.2 28.1
17:40 1019 30.09 848 25.04 18.6 65.5 23 -2.5 27.4
17:45 1019 30.09 848 25.04 18.9 66 24 -2 28.3
17:50 1019 30.09 848 25.04 18.8 65.8 24 -2.1 28.2
17:55 1019 30.09 848 25.04 18.7 65.6 24 -2.1 28.3
18:00 1019 30.09 848 25.04 18.4 65.2 25 -1.5 29.2
18:05 1019 30.09 848 25.04 18.1 64.6 26 -1.5 29.3
18:10 1019 30.09 848 25.04 17.8 64 26 -1.7 29
18:15 1019 30.09 848 25.04 17.5 63.6 28 -1.1 30
18:20 1019 30.09 848 25.04 17 62.6 29 -0.9 30.4
18:25 1019 30.09 848 25.04 16.2 61.2 31 -0.8 30.6
18:30 1019 30.09 848 25.04 14.9 58.8 31 -2.2 28.1
18:35 1019 30.09 848 25.04 13.9 57 33 -2.2 28
18:40 1019 30.09 848 25.04 13.2 55.8 35 -1.9 28.5
18:45 1019 30.09 848 25.04 12.9 55.2 38 -1.2 29.9
18:50 1019 30.09 848 25.04 12.5 54.4 36 -2.1 28.2
18:55 1019 30.09 848 25.04 12.3 54.2 36 -2.1 28.1
19:00 1019 30.09 848 25.04 12 53.6 36 -2.5 27.4
19:05 1019 30.09 848 25.04 11.5 52.8 38 -2.4 27.7
19:10 1019 30.09 848 25.04 11 51.9 38 -2.6 27.3
19:15 1019 30.09 848 25.04 10.7 51.2 41 -2 28.4
19:20 1019 30.09 848 25.04 10.1 50.2 43 -1.9 28.6
19:25 1019 30.09 848 25.04 10.1 50.1 41 -2.4 27.6
19:30 1019 30.09 848 25.04 10.3 50.5 40 -2.8 27
19:35 1019 30.09 848 25.04 10.5 50.9 37 -3.5 25.7
19:40 1019 30.09 848 25.04 10.4 50.8 38 -3.3 26.1
19:45 1019 30.09 848 25.04 9.9 49.9 38 -3.7 25.4
19:50 1019 30.09 848 25.04 9.7 49.5 38 -4 24.7
19:55 1019 30.09 848 25.04 9.7 49.5 37 -4.3 24.3
20:00 1019 30.09 848 25.04 10.2 50.3 35 -4.6 23.7
20:05 1019 30.09 848 25.04 10.8 51.5 33 -4.9 23.2
20:10 1019 30.09 848 25.04 10.9 51.6 34 -4.4 24.1
20:15 1019 30.09 848 25.04 10.5 50.8 34 -4.6 23.7
20:20 1019 30.09 848 25.04 10.1 50.1 36 -4.3 24.3
20:25 1019 30.09 848 25.04 9.6 49.3 37 -4.4 24.1
20:30 1019 30.09 848 25.04 9.5 49.1 36 -4.7 23.5
20:35 1019 30.09 848 25.04 9.6 49.3 35 -5 23
20:40 1019 30.09 848 25.04 9.5 49.1 34 -5.4 22.3
20:45 1019 30.09 848 25.04 9.9 49.7 33 -5.5 22.2
20:50 1019 30.09 848 25.04 10.2 50.4 33 -5.1 22.8
20:55 1019 30.09 848 25.04 9.9 49.9 34 -5.2 22.6
21:00 1019 30.09 848 25.04 9.6 49.3 34 -5.3 22.4
21:05 1019 30.09 848 25.04 9.4 49 35 -5.1 22.8
21:10 1019 30.09 848 25.04 9.1 48.3 37 -5 23.1
21:15 1019 30.09 848 25.04 8.9 48 35 -5.6 21.9
21:20 1019 30.09 848 25.04 8.8 47.9 37 -5.1 22.9
21:25 1019 30.09 848 25.04 8.8 47.8 36 -5.5 22.1
21:30 1019 30.09 848 25.04 8.8 47.8 35 -5.9 21.3
21:35 1019 30.09 848 25.04 9.2 48.5 33 -6.2 20.9
21:40 1019 30.09 848 25.04 9.5 49.1 33 -5.9 21.4
21:45 1019 30.09 848 25.04 9.6 49.2 34 -5.7 21.8
21:50 1019 30.09 848 25.04 9.5 49.1 33 -6.1 21
21:55 1019 30.09 848 25.04 9.6 49.3 33 -5.7 21.8
22:00 1019 30.09 848 25.04 9.1 48.3 36 -5 22.9
22:05 1019 30.09 848 25.04 8.9 48.1 35 -5.8 21.6
22:10 1019 30.09 848 25.04 9 48.1 36 -5.2 22.6
22:15 1019 30.09 848 25.04 8.3 47 39 -4.9 23.1
22:20 1019 30.09 848 25.04 8.5 47.3 36 -5.6 22
22:25 1019 30.09 848 25.04 9.2 48.5 33 -6 21.1
22:30 1019 30.09 848 25.04 9.1 48.3 33 -6.1 21
22:35 1019 30.09 848 25.04 9.1 48.3 34 -6.1 21
22:40 1019 30.09 848 25.04 9.2 48.6 34 -5.9 21.4
22:45 1019 30.09 848 25.04 9.2 48.6 33 -6.3 20.7
22:50 1019 30.09 848 25.04 9.3 48.7 33 -6 21.2
22:55 1019 30.09 848 25.04 8.9 48 36 -5.4 22.2
23:00 1019 30.09 848 25.04 8.5 47.2 34 -6.5 20.4
23:05 1019 30.09 848 25.04 8.4 47.1 39 -4.7 23.6
23:10 1019 30.09 848 25.04 8.2 46.7 35 -6.2 20.8
23:15 1019 30.09 848 25.04 9.2 48.5 36 -5.1 22.8
23:20 1019 30.09 848 25.04 9.4 49 35 -5.2 22.7
23:25 1019 30.09 848 25.04 9.4 48.8 35 -5.4 22.3
23:30 1019 30.09 848 25.04 9.2 48.6 38 -4.2 24.4
23:35 1019 30.09 848 25.04 8.3 46.9 41 -4.2 24.4
23:40 1019 30.09 848 25.04 7.9 46.1 43 -4 24.8
23:45 1019 30.09 848 25.04 7.4 45.4 41 -4.9 23.2
23:50 1019 30.09 848 25.04 7.7 45.8 39 -5.4 22.3
23:55 1019 30.09 848 25.04 8 46.3 40 -4.8 23.4
24:00 1019 30.09 848 25.04 7.7 45.9 41 -4.8 23.4